Time;durP1;ratioP1;P1;durP2;ratioP2;P2;SDS_P1;SDS_P2;PMS_P1;PMS_P2;Temp;Humidity;BMP_temperature;BMP_pressure;BME280_temperature;BME280_humidity;BME280_pressure;Samples;Min_cycle;Max_cycle;Signal;HPM_P1;HPM_P2
2022/04/24 00:02:24;;;;;;;9.05;6.25;;;7.20;99.90;;;;;;4999552;28;20223;-73
2022/04/24 00:04:52;;;;;;;7.05;6.38;;;7.20;99.90;;;;;;4998128;28;20346;-73
2022/04/24 00:07:20;;;;;;;8.25;7.00;;;7.20;99.90;;;;;;4998586;28;20296;-76
2022/04/24 00:09:48;;;;;;;6.32;5.72;;;7.10;99.90;;;;;;5011507;27;20208;-74
2022/04/24 00:12:18;;;;;;;6.97;6.03;;;7.10;99.90;;;;;;5022675;28;20226;-73
2022/04/24 00:14:47;;;;;;;10.55;6.95;;;7.10;99.90;;;;;;5021426;28;20216;-75
2022/04/24 00:17:16;;;;;;;9.30;7.65;;;7.10;99.90;;;;;;5016850;28;20215;-74
2022/04/24 00:19:44;;;;;;;6.43;5.82;;;7.10;99.90;;;;;;5015349;28;20287;-72
2022/04/24 00:22:12;;;;;;;5.85;5.25;;;7.10;99.90;;;;;;5006861;28;20227;-74
2022/04/24 00:24:40;;;;;;;7.43;6.63;;;7.10;99.90;;;;;;5008562;28;20311;-74
2022/04/24 00:27:09;;;;;;;7.68;5.72;;;7.00;99.90;;;;;;5003052;28;20209;-72
2022/04/24 00:29:38;;;;;;;7.18;6.47;;;7.10;99.90;;;;;;5002057;28;20765;-73
2022/04/24 00:32:07;;;;;;;9.93;6.55;;;7.00;99.90;;;;;;5001172;28;20218;-72
2022/04/24 00:34:35;;;;;;;8.20;6.10;;;7.00;99.90;;;;;;5000100;28;20236;-72
2022/04/24 00:37:04;;;;;;;9.00;6.25;;;7.00;99.90;;;;;;5010555;28;20276;-72
2022/04/24 00:39:32;;;;;;;6.72;5.60;;;6.90;99.90;;;;;;5012988;28;20313;-73
2022/04/24 00:42:00;;;;;;;7.35;5.35;;;6.90;99.90;;;;;;5000811;28;20222;-76
2022/04/24 00:44:28;;;;;;;10.63;5.95;;;6.90;99.90;;;;;;5001592;28;20203;-75
2022/04/24 00:47:00;;;;;;;6.10;5.40;;;6.90;99.90;;;;;;4993866;27;20218;-76
2022/04/24 00:49:28;;;;;;;5.57;5.13;;;6.90;99.90;;;;;;4983283;28;20212;-75
2022/04/24 00:51:57;;;;;;;7.32;5.68;;;6.90;99.90;;;;;;4996334;28;20233;-75
2022/04/24 00:54:25;;;;;;;7.18;6.10;;;6.90;99.90;;;;;;5001439;28;20244;-76
2022/04/24 00:56:53;;;;;;;6.55;5.05;;;6.80;99.90;;;;;;5001733;28;20211;-75
2022/04/24 00:59:21;;;;;;;12.35;6.75;;;6.80;99.90;;;;;;5000953;28;20218;-75
2022/04/24 01:01:49;;;;;;;8.73;6.55;;;6.80;99.90;;;;;;4998572;28;20223;-75
2022/04/24 01:04:19;;;;;;;8.75;5.95;;;6.70;99.90;;;;;;4998247;28;20259;-75
2022/04/24 01:06:47;;;;;;;13.57;6.35;;;6.70;99.90;;;;;;4997664;28;20206;-76
2022/04/24 01:09:17;;;;;;;8.15;6.55;;;6.80;99.90;;;;;;5001665;28;20210;-76
2022/04/24 01:11:46;;;;;;;11.13;6.47;;;6.80;99.90;;;;;;4999564;28;20283;-75
2022/04/24 01:14:16;;;;;;;7.93;6.68;;;6.70;99.90;;;;;;4998871;28;20477;-74
2022/04/24 01:16:45;;;;;;;6.75;6.03;;;6.70;99.90;;;;;;4998569;28;20465;-72
2022/04/24 01:19:13;;;;;;;8.85;6.80;;;6.70;99.90;;;;;;4997913;28;20329;-73
2022/04/24 01:21:44;;;;;;;8.02;6.32;;;6.70;99.90;;;;;;4998385;28;20767;-73
2022/04/24 01:24:12;;;;;;;8.07;6.70;;;6.60;99.90;;;;;;4999448;28;20298;-73
2022/04/24 01:26:40;;;;;;;6.20;5.47;;;6.60;99.90;;;;;;4998773;28;20199;-74
2022/04/24 01:29:09;;;;;;;8.27;6.53;;;6.60;99.90;;;;;;4998917;27;20211;-74
2022/04/24 01:31:37;;;;;;;9.02;5.90;;;6.60;99.90;;;;;;5000399;28;20559;-74
2022/04/24 01:34:05;;;;;;;8.00;6.18;;;6.50;99.90;;;;;;4999576;28;20289;-74
2022/04/24 01:36:33;;;;;;;9.60;5.57;;;6.50;99.90;;;;;;4997968;28;20217;-73
2022/04/24 01:39:03;;;;;;;5.80;5.20;;;6.50;99.90;;;;;;4997570;28;20207;-73
2022/04/24 01:41:31;;;;;;;5.85;5.32;;;6.50;99.90;;;;;;4997046;28;20231;-74
2022/04/24 01:43:59;;;;;;;6.80;4.82;;;6.60;99.90;;;;;;4997107;28;20600;-73
2022/04/24 01:46:27;;;;;;;6.97;5.53;;;6.60;99.90;;;;;;4997278;28;20489;-73
2022/04/24 01:48:55;;;;;;;8.35;5.10;;;6.60;99.90;;;;;;4996791;28;20636;-73
2022/04/24 01:51:23;;;;;;;6.78;5.32;;;6.60;99.90;;;;;;4996987;28;20609;-73
2022/04/24 01:53:51;;;;;;;5.57;4.75;;;6.60;99.90;;;;;;4999387;28;20206;-73
2022/04/24 01:56:20;;;;;;;10.18;5.65;;;6.60;99.90;;;;;;5000936;28;20623;-73
2022/04/24 01:58:48;;;;;;;8.10;5.28;;;6.60;99.90;;;;;;5000823;28;20183;-73
2022/04/24 02:01:16;;;;;;;7.32;4.97;;;6.60;99.90;;;;;;5000734;28;20563;-75
2022/04/24 02:03:44;;;;;;;5.82;4.75;;;6.60;99.90;;;;;;5000883;28;20202;-75
2022/04/24 02:06:12;;;;;;;9.38;4.90;;;6.60;99.90;;;;;;5000433;28;20206;-75
2022/04/24 02:08:40;;;;;;;6.45;4.75;;;6.60;99.90;;;;;;5000180;28;20203;-75
2022/04/24 02:11:08;;;;;;;7.05;5.40;;;6.60;99.90;;;;;;5000689;28;20234;-74
2022/04/24 02:13:38;;;;;;;8.07;4.90;;;6.70;99.90;;;;;;5000858;28;20199;-75
2022/04/24 02:16:06;;;;;;;9.27;5.00;;;6.70;99.90;;;;;;5000504;28;20238;-75
2022/04/24 02:18:34;;;;;;;7.53;4.50;;;6.70;99.90;;;;;;4999883;28;20241;-74
2022/04/24 02:21:02;;;;;;;5.70;4.80;;;6.70;99.90;;;;;;4999470;28;20589;-75
2022/04/24 02:23:30;;;;;;;6.47;4.72;;;6.70;99.90;;;;;;5000866;28;20208;-74
2022/04/24 02:25:57;;;;;;;5.25;4.65;;;6.80;99.90;;;;;;5002772;27;20223;-75
2022/04/24 02:28:25;;;;;;;5.82;4.05;;;6.70;99.90;;;;;;5002625;28;20227;-73
2022/04/24 02:30:54;;;;;;;4.93;4.40;;;6.70;99.90;;;;;;5000274;28;20215;-74
2022/04/24 02:33:22;;;;;;;5.60;4.40;;;6.70;99.90;;;;;;5000386;28;20776;-72
2022/04/24 02:35:50;;;;;;;4.45;4.00;;;6.70;99.90;;;;;;4995828;28;20290;-71
2022/04/24 02:38:18;;;;;;;6.40;4.63;;;6.70;99.90;;;;;;4984336;28;20211;-72
2022/04/24 02:40:46;;;;;;;4.97;4.45;;;6.70;99.90;;;;;;4994354;28;20219;-72
2022/04/24 02:43:14;;;;;;;7.28;5.53;;;6.70;99.90;;;;;;4999874;28;20843;-71
2022/04/24 02:45:42;;;;;;;4.75;4.25;;;6.60;99.90;;;;;;4993094;28;20204;-72
2022/04/24 02:48:11;;;;;;;4.28;3.90;;;6.70;99.90;;;;;;4980284;28;20226;-73
2022/04/24 02:50:39;;;;;;;5.00;4.22;;;6.70;99.90;;;;;;4979611;28;20588;-73
2022/04/24 02:53:07;;;;;;;6.18;4.72;;;6.60;99.90;;;;;;4984017;28;20211;-74
2022/04/24 02:55:35;;;;;;;6.60;4.40;;;6.50;99.90;;;;;;4992751;28;20208;-74
2022/04/24 02:58:04;;;;;;;9.85;4.03;;;6.50;99.90;;;;;;4987632;28;20218;-73
2022/04/24 03:00:42;;;;;;;8.57;4.97;;;6.40;99.90;;;;;;4984396;28;20203;-74
2022/04/24 03:03:12;;;;;;;7.38;4.88;;;6.40;99.90;;;;;;4980480;28;20257;-73
2022/04/24 03:05:39;;;;;;;9.30;4.80;;;6.30;99.90;;;;;;4979334;28;20587;-74
2022/04/24 03:08:09;;;;;;;7.00;4.10;;;6.30;99.90;;;;;;4980157;28;20204;-73
2022/04/24 03:10:37;;;;;;;5.53;4.95;;;6.20;99.90;;;;;;4979933;28;20311;-73
2022/04/24 03:13:05;;;;;;;11.40;6.95;;;6.10;99.90;;;;;;4981686;28;20891;-72
2022/04/24 03:15:33;;;;;;;4.85;4.45;;;6.00;99.90;;;;;;4981022;28;20210;-72
2022/04/24 03:18:01;;;;;;;4.65;4.00;;;6.00;99.90;;;;;;4980030;28;20214;-77
2022/04/24 03:20:30;;;;;;;6.70;4.25;;;6.00;99.90;;;;;;4980899;28;20480;-77
2022/04/24 03:22:58;;;;;;;11.18;5.35;;;5.90;99.90;;;;;;4979194;28;20273;-71
2022/04/24 03:25:26;;;;;;;6.70;4.20;;;6.00;99.90;;;;;;4979690;28;20248;-71
2022/04/24 03:27:54;;;;;;;5.80;3.58;;;6.00;99.90;;;;;;4980120;28;20199;-72
2022/04/24 03:30:22;;;;;;;6.20;4.00;;;6.00;99.90;;;;;;4979586;28;20302;-73
2022/04/24 03:32:50;;;;;;;4.78;4.38;;;6.00;99.90;;;;;;4979429;28;20262;-71
2022/04/24 03:35:18;;;;;;;4.38;3.97;;;6.00;99.90;;;;;;4978713;28;20203;-71
2022/04/24 03:37:48;;;;;;;4.93;4.18;;;6.00;99.90;;;;;;4983611;28;20573;-73
2022/04/24 03:40:16;;;;;;;9.30;4.57;;;5.90;99.90;;;;;;4992716;28;20252;-73
2022/04/24 03:42:44;;;;;;;5.32;3.75;;;5.80;99.90;;;;;;4998021;28;20245;-72
2022/04/24 03:45:12;;;;;;;7.78;4.57;;;5.80;99.90;;;;;;4998052;27;20254;-72
2022/04/24 03:47:39;;;;;;;5.15;4.45;;;5.80;99.90;;;;;;4997972;28;20248;-72
2022/04/24 03:50:08;;;;;;;10.07;6.25;;;5.80;99.90;;;;;;4994364;28;114528;-71
2022/04/24 03:52:36;;;;;;;5.97;4.00;;;5.80;99.90;;;;;;4998996;28;20222;-71
2022/04/24 03:55:07;;;;;;;8.27;4.65;;;5.70;99.90;;;;;;4998960;28;20475;-73
2022/04/24 03:57:35;;;;;;;6.68;4.65;;;5.70;99.90;;;;;;4998139;28;20662;-72
2022/04/24 04:00:04;;;;;;;5.32;3.88;;;5.60;99.90;;;;;;4998142;28;20203;-72
2022/04/24 04:02:31;;;;;;;8.75;5.50;;;5.60;99.90;;;;;;4999238;28;20227;-71
2022/04/24 04:05:00;;;;;;;4.95;4.45;;;5.60;99.90;;;;;;4998675;28;20238;-72
2022/04/24 04:07:28;;;;;;;6.70;4.25;;;5.60;99.90;;;;;;4998547;28;20678;-71
2022/04/24 04:09:56;;;;;;;8.43;5.55;;;5.60;99.90;;;;;;4998187;28;20213;-74
2022/04/24 04:12:28;;;;;;;7.40;5.60;;;5.60;99.90;;;;;;4999451;28;20749;-74
2022/04/24 04:14:56;;;;;;;7.22;5.32;;;5.60;99.90;;;;;;4999629;28;20422;-74
2022/04/24 04:17:24;;;;;;;9.70;5.10;;;5.60;99.90;;;;;;4998568;28;20238;-74
2022/04/24 04:19:52;;;;;;;6.90;5.50;;;5.60;99.90;;;;;;4998542;28;20211;-75
2022/04/24 04:22:20;;;;;;;7.90;5.38;;;5.50;99.90;;;;;;5000090;28;20284;-74
2022/04/24 04:24:47;;;;;;;15.98;5.55;;;5.50;99.90;;;;;;5004115;28;20392;-73
2022/04/24 04:27:15;;;;;;;9.32;6.22;;;5.50;99.90;;;;;;4987636;27;20690;-74
2022/04/24 04:29:44;;;;;;;9.32;6.45;;;5.60;99.90;;;;;;4978312;28;20208;-74
2022/04/24 04:32:12;;;;;;;8.05;5.63;;;5.60;99.90;;;;;;4978501;28;20628;-75
2022/04/24 04:34:40;;;;;;;10.80;6.88;;;5.60;99.90;;;;;;4980370;28;20744;-75
2022/04/24 04:37:09;;;;;;;13.85;6.25;;;5.60;99.90;;;;;;4981328;28;20257;-74
2022/04/24 04:39:37;;;;;;;12.52;7.63;;;5.60;99.90;;;;;;4979749;28;20594;-74
2022/04/24 04:42:07;;;;;;;7.93;6.07;;;5.70;99.90;;;;;;4979522;28;20289;-75
2022/04/24 04:44:35;;;;;;;13.90;7.95;;;5.70;99.90;;;;;;4980451;28;20363;-74
2022/04/24 04:47:06;;;;;;;9.93;5.90;;;5.80;99.90;;;;;;4979424;28;20568;-75
2022/04/24 04:49:35;;;;;;;11.10;6.55;;;5.80;99.90;;;;;;4982033;28;20226;-74
2022/04/24 04:52:03;;;;;;;12.90;6.45;;;5.90;99.90;;;;;;4990440;28;20614;-75
2022/04/24 04:54:30;;;;;;;11.65;6.55;;;5.90;99.90;;;;;;4979863;28;20206;-75
2022/04/24 04:56:58;;;;;;;13.02;7.95;;;5.90;99.90;;;;;;4978405;28;20226;-76
2022/04/24 04:59:26;;;;;;;8.98;6.80;;;6.00;99.90;;;;;;4979265;28;20222;-72
2022/04/24 05:01:54;;;;;;;8.80;7.30;;;6.00;99.90;;;;;;4978900;28;20508;-73
2022/04/24 05:04:23;;;;;;;11.52;7.38;;;6.00;99.90;;;;;;4985698;28;20311;-76
2022/04/24 05:06:51;;;;;;;12.27;6.60;;;6.10;99.90;;;;;;4982683;28;20234;-77
2022/04/24 05:09:19;;;;;;;9.10;6.07;;;6.10;99.90;;;;;;4998410;28;20373;-75
2022/04/24 05:11:46;;;;;;;11.43;6.65;;;6.20;99.90;;;;;;5012209;28;20312;-75
2022/04/24 05:14:14;;;;;;;9.50;7.32;;;6.30;99.90;;;;;;4989916;28;20737;-75
2022/04/24 05:16:42;;;;;;;8.20;6.28;;;6.30;99.90;;;;;;4977665;28;20204;-73
2022/04/24 05:19:10;;;;;;;13.82;6.28;;;6.40;99.90;;;;;;4978122;28;20695;-74
2022/04/24 05:21:39;;;;;;;14.05;6.57;;;6.50;99.90;;;;;;4977972;28;20319;-74
2022/04/24 05:24:07;;;;;;;10.18;6.65;;;6.50;99.90;;;;;;4977792;28;20240;-72
2022/04/24 05:26:35;;;;;;;12.38;6.80;;;6.60;99.90;;;;;;4978926;28;20295;-74
2022/04/24 05:29:03;;;;;;;8.50;6.95;;;6.60;99.90;;;;;;4983159;28;20295;-72
2022/04/24 05:31:31;;;;;;;9.07;6.30;;;6.60;99.90;;;;;;4982179;28;20756;-73
2022/04/24 05:33:59;;;;;;;13.52;6.45;;;6.70;99.90;;;;;;4982900;28;20203;-74
2022/04/24 05:36:27;;;;;;;7.25;5.75;;;6.80;99.90;;;;;;4980171;28;20203;-71
2022/04/24 05:38:56;;;;;;;8.20;5.63;;;6.80;99.90;;;;;;4980741;28;20203;-72
2022/04/24 05:41:24;;;;;;;7.35;5.22;;;6.90;99.90;;;;;;4980153;28;20224;-74
2022/04/24 05:43:51;;;;;;;8.23;5.95;;;6.90;99.90;;;;;;4986795;28;20223;-72
2022/04/24 05:46:19;;;;;;;7.18;5.38;;;7.00;99.90;;;;;;4994839;28;20232;-74
2022/04/24 05:48:48;;;;;;;7.15;5.30;;;7.00;99.90;;;;;;4998778;28;20409;-72
2022/04/24 05:51:15;;;;;;;8.68;5.70;;;7.10;99.90;;;;;;4998346;28;20419;-73
2022/04/24 05:53:43;;;;;;;6.65;5.63;;;7.10;99.90;;;;;;4997595;28;20207;-72
2022/04/24 05:56:12;;;;;;;8.20;5.78;;;7.20;99.90;;;;;;4997466;28;20306;-74
2022/04/24 05:58:40;;;;;;;6.95;4.65;;;7.20;99.90;;;;;;4985237;28;20299;-73
2022/04/24 06:01:08;;;;;;;10.40;5.78;;;7.30;99.90;;;;;;4978949;28;20220;-73
2022/04/24 06:03:38;;;;;;;6.55;5.30;;;7.40;99.90;;;;;;4978341;28;20281;-74
2022/04/24 06:06:06;;;;;;;7.75;5.25;;;7.40;99.90;;;;;;4977719;28;20269;-75
2022/04/24 06:08:34;;;;;;;12.98;6.03;;;7.50;99.90;;;;;;4983410;28;20672;-74
2022/04/24 06:11:02;;;;;;;5.70;4.82;;;7.60;99.90;;;;;;4987803;28;20250;-74
2022/04/24 06:13:31;;;;;;;11.10;5.05;;;7.70;99.90;;;;;;4986397;28;20206;-71
2022/04/24 06:15:59;;;;;;;5.07;4.47;;;7.70;99.90;;;;;;4986103;28;20314;-71
2022/04/24 06:18:28;;;;;;;7.32;6.05;;;7.80;99.90;;;;;;4986867;28;20208;-74
2022/04/24 06:20:56;;;;;;;12.43;5.50;;;7.90;99.90;;;;;;4986938;28;20223;-73
2022/04/24 06:23:27;;;;;;;11.43;4.88;;;7.90;99.90;;;;;;4989728;28;20222;-73
2022/04/24 06:25:55;;;;;;;6.00;4.15;;;8.00;99.90;;;;;;4984030;28;20200;-71
2022/04/24 06:28:23;;;;;;;5.10;4.38;;;8.00;99.90;;;;;;4990223;28;20204;-71
2022/04/24 06:30:52;;;;;;;8.95;4.75;;;8.10;99.90;;;;;;4988400;28;20567;-73
2022/04/24 06:33:20;;;;;;;4.43;4.00;;;8.10;99.90;;;;;;4986126;28;20642;-70
2022/04/24 06:35:48;;;;;;;5.10;3.88;;;8.30;99.90;;;;;;4988697;28;20660;-70
2022/04/24 06:38:24;;;;;;;6.20;4.65;;;8.30;99.90;;;;;;4985930;28;20195;-69
2022/04/24 06:40:53;;;;;;;4.82;3.72;;;8.40;99.90;;;;;;4991491;28;20475;-69
2022/04/24 06:43:21;;;;;;;4.80;4.03;;;8.40;99.90;;;;;;4992072;28;20219;-70
2022/04/24 06:45:49;;;;;;;9.50;3.33;;;8.50;99.90;;;;;;4989732;28;20199;-69
2022/04/24 06:48:18;;;;;;;7.40;5.25;;;8.60;99.90;;;;;;4992268;28;20199;-72
2022/04/24 06:50:47;;;;;;;4.90;4.40;;;8.60;99.90;;;;;;4988290;28;20195;-71
2022/04/24 06:53:18;;;;;;;6.38;4.22;;;8.70;99.90;;;;;;4992939;28;20188;-70
2022/04/24 06:55:50;;;;;;;6.95;3.95;;;8.70;99.90;;;;;;4985141;28;20462;-71
2022/04/24 06:58:20;;;;;;;4.03;3.63;;;8.80;99.90;;;;;;4988253;28;20295;-69
2022/04/24 07:00:49;;;;;;;6.47;4.40;;;8.80;99.90;;;;;;4995035;28;20203;-72
2022/04/24 07:03:35;;;;;;;7.53;4.07;;;8.90;99.90;;;;;;4983892;28;20216;-68
2022/04/24 07:06:04;;;;;;;4.80;4.28;;;9.00;99.90;;;;;;4989351;28;20677;-71
2022/04/24 07:08:33;;;;;;;5.63;4.88;;;9.10;99.90;;;;;;4988228;28;20528;-68
2022/04/24 07:11:01;;;;;;;7.28;4.82;;;9.10;99.90;;;;;;4989832;28;20225;-68
2022/04/24 07:13:29;;;;;;;6.18;4.32;;;9.20;99.90;;;;;;4990445;28;20211;-71
2022/04/24 07:15:57;;;;;;;7.65;4.40;;;9.20;99.90;;;;;;4987550;28;20199;-70
2022/04/24 07:18:25;;;;;;;5.50;3.83;;;9.20;99.90;;;;;;4992287;28;20275;-71
2022/04/24 07:20:55;;;;;;;6.78;4.32;;;9.20;99.90;;;;;;4992392;28;20224;-70
2022/04/24 07:23:24;;;;;;;6.40;4.03;;;9.20;99.90;;;;;;4996246;28;20462;-68
2022/04/24 07:25:52;;;;;;;3.95;3.65;;;9.30;99.90;;;;;;4991019;28;20195;-70
2022/04/24 07:28:23;;;;;;;6.55;4.03;;;9.30;99.90;;;;;;4993629;28;20196;-68
2022/04/24 07:30:51;;;;;;;5.93;3.70;;;9.30;99.90;;;;;;5006209;28;20226;-71
2022/04/24 07:33:19;;;;;;;5.63;3.90;;;9.40;99.90;;;;;;4997962;28;20211;-69
2022/04/24 07:35:47;;;;;;;4.03;3.63;;;9.50;99.90;;;;;;4999451;28;20740;-69
2022/04/24 07:38:16;;;;;;;4.45;3.72;;;9.60;99.90;;;;;;4994312;28;20191;-73
2022/04/24 07:40:44;;;;;;;4.40;3.53;;;9.60;99.90;;;;;;4994593;28;20199;-73
2022/04/24 07:43:13;;;;;;;4.47;3.40;;;9.80;99.90;;;;;;4993428;28;20584;-73
2022/04/24 07:45:47;;;;;;;5.32;3.65;;;9.80;99.90;;;;;;4991347;28;20202;-73
2022/04/24 07:48:18;;;;;;;4.45;3.47;;;9.90;99.90;;;;;;4989737;28;20251;-73
2022/04/24 07:50:48;;;;;;;4.97;2.90;;;10.00;99.90;;;;;;4990137;28;20254;-72
2022/04/24 07:53:19;;;;;;;3.72;3.42;;;10.10;99.90;;;;;;4984179;28;20204;-73
2022/04/24 07:55:48;;;;;;;6.40;4.07;;;10.20;99.90;;;;;;4989204;28;20203;-70
2022/04/24 07:58:19;;;;;;;4.03;3.38;;;10.20;99.90;;;;;;4988347;28;20196;-70
2022/04/24 08:00:47;;;;;;;3.55;3.25;;;10.40;99.90;;;;;;4989897;28;20210;-70
2022/04/24 08:03:16;;;;;;;5.18;3.38;;;10.50;99.90;;;;;;4995671;27;20378;-70
2022/04/24 08:05:45;;;;;;;4.65;4.25;;;10.60;99.90;;;;;;4988028;28;20347;-70
2022/04/24 08:08:15;;;;;;;5.60;3.50;;;10.70;99.90;;;;;;4990970;28;20303;-70
2022/04/24 08:10:47;;;;;;;5.28;3.55;;;10.70;99.90;;;;;;5006874;28;20202;-71
2022/04/24 08:13:16;;;;;;;3.80;2.77;;;10.70;99.90;;;;;;5031526;28;20667;-70
2022/04/24 08:15:45;;;;;;;5.97;3.80;;;10.80;99.90;;;;;;5005406;28;20452;-70
2022/04/24 08:18:13;;;;;;;3.08;2.88;;;10.80;99.90;;;;;;4993186;28;20216;-70
2022/04/24 08:20:44;;;;;;;4.28;3.88;;;10.80;99.90;;;;;;4984493;28;20207;-69
2022/04/24 08:23:15;;;;;;;3.40;2.90;;;10.80;99.90;;;;;;4984747;28;20204;-71
2022/04/24 08:25:43;;;;;;;5.00;3.03;;;10.90;99.90;;;;;;4987761;28;20442;-70
2022/04/24 08:28:14;;;;;;;3.97;3.58;;;10.80;99.90;;;;;;4992628;28;20261;-70
2022/04/24 08:30:43;;;;;;;5.38;3.05;;;10.90;99.90;;;;;;4991181;28;20188;-71
2022/04/24 08:33:17;;;;;;;10.18;3.85;;;11.00;99.90;;;;;;4982874;28;20393;-70
2022/04/24 08:35:47;;;;;;;5.23;3.63;;;11.00;99.90;;;;;;4982367;28;20566;-71
2022/04/24 08:38:16;;;;;;;4.13;3.10;;;10.90;99.90;;;;;;4985335;28;20515;-72
2022/04/24 08:40:44;;;;;;;3.80;3.50;;;10.90;99.90;;;;;;4998318;27;20484;-74
2022/04/24 08:43:14;;;;;;;4.97;2.77;;;11.00;99.90;;;;;;4995648;28;20458;-74
2022/04/24 08:45:43;;;;;;;4.37;3.97;;;11.10;99.90;;;;;;4979732;28;20488;-74
2022/04/24 08:48:11;;;;;;;3.67;3.27;;;11.20;99.90;;;;;;4984007;28;20451;-75
2022/04/24 08:50:40;;;;;;;3.27;2.97;;;11.30;99.90;;;;;;4993073;28;20467;-76
2022/04/24 08:53:10;;;;;;;7.33;3.70;;;11.30;99.90;;;;;;4999292;28;20458;-76
2022/04/24 08:55:38;;;;;;;3.90;3.60;;;11.30;99.90;;;;;;4998524;28;20439;-76
2022/04/24 08:58:06;;;;;;;4.20;3.63;;;11.30;99.90;;;;;;4997936;28;20450;-76
2022/04/24 09:00:35;;;;;;;3.58;3.35;;;11.30;99.90;;;;;;4998406;27;20462;-74
2022/04/24 09:03:04;;;;;;;4.97;3.37;;;11.20;99.90;;;;;;5066344;28;20200;-75
2022/04/24 09:05:32;;;;;;;7.43;3.70;;;11.20;99.90;;;;;;5013959;28;20558;-78
2022/04/24 09:08:08;;;;;;;4.93;3.72;;;11.20;99.90;;;;;;4997719;28;20235;-74
2022/04/24 09:10:58;;;;;;;3.28;3.05;;;11.20;99.90;;;;;;4986887;28;20717;-75
2022/04/24 09:13:31;;;;;;;4.20;3.70;;;11.10;99.90;;;;;;4991680;28;20211;-72
2022/04/24 09:16:02;;;;;;;4.65;3.38;;;11.10;99.90;;;;;;4997404;28;20319;-74
2022/04/24 09:18:40;;;;;;;3.93;3.10;;;11.10;99.90;;;;;;4999251;27;20242;-72
2022/04/24 09:21:11;;;;;;;6.50;3.23;;;11.10;99.90;;;;;;4993078;28;20509;-72
2022/04/24 09:23:42;;;;;;;5.13;3.37;;;11.10;99.90;;;;;;4999043;28;20754;-72
2022/04/24 09:26:15;;;;;;;3.27;2.97;;;11.10;99.90;;;;;;4991819;28;20478;-72
2022/04/24 09:28:44;;;;;;;4.13;3.73;;;11.10;99.90;;;;;;4995257;28;20524;-73
2022/04/24 09:31:13;;;;;;;3.83;3.60;;;11.10;99.90;;;;;;4979611;28;20475;-73
2022/04/24 09:33:42;;;;;;;3.30;3.10;;;11.10;99.90;;;;;;4980829;28;20443;-72
2022/04/24 09:36:12;;;;;;;5.20;4.65;;;11.10;99.90;;;;;;4981557;28;20459;-72
2022/04/24 09:38:42;;;;;;;4.20;3.83;;;11.00;99.90;;;;;;4987822;28;20293;-72
2022/04/24 09:41:23;;;;;;;5.00;3.55;;;11.10;99.90;;;;;;4982601;28;20652;-73
2022/04/24 09:43:51;;;;;;;3.33;3.03;;;11.10;99.90;;;;;;4987573;28;20452;-73
2022/04/24 09:46:29;;;;;;;3.50;3.20;;;11.20;99.90;;;;;;5002146;28;20283;-73
2022/04/24 09:49:01;;;;;;;4.37;3.53;;;11.30;99.90;;;;;;4991255;28;20218;-73
2022/04/24 09:51:51;;;;;;;6.00;3.60;;;11.40;99.90;;;;;;4966446;28;20455;-73
2022/04/24 09:54:20;;;;;;;5.10;3.73;;;11.60;99.90;;;;;;4982136;28;20447;-72
2022/04/24 09:56:49;;;;;;;4.20;3.60;;;11.60;99.90;;;;;;4968843;28;20443;-72
2022/04/24 09:59:17;;;;;;;6.10;3.75;;;11.60;99.90;;;;;;4967083;28;20945;-72
2022/04/24 10:01:49;;;;;;;5.23;3.80;;;11.60;99.90;;;;;;4964897;28;20676;-72
2022/04/24 10:04:18;;;;;;;4.27;3.37;;;11.50;99.90;;;;;;4965991;28;20830;-72
2022/04/24 10:06:47;;;;;;;4.37;3.80;;;11.60;99.90;;;;;;4964444;28;20519;-71
2022/04/24 10:09:17;;;;;;;4.60;4.10;;;11.50;99.90;;;;;;4964376;28;20891;-71
2022/04/24 10:11:54;;;;;;;3.50;3.13;;;11.40;99.90;;;;;;4966316;28;20503;-71
2022/04/24 10:14:23;;;;;;;4.80;3.07;;;11.40;99.90;;;;;;4967089;28;20443;-71
2022/04/24 10:17:26;;;;;;;3.15;2.95;;;11.40;99.90;;;;;;4968258;28;20503;-72
2022/04/24 10:20:10;;;;;;;7.93;3.80;;;11.50;99.90;;;;;;4970065;28;20197;-71
2022/04/24 10:22:40;;;;;;;3.40;3.07;;;11.50;99.90;;;;;;4974698;28;20459;-75
2022/04/24 10:25:08;;;;;;;4.00;3.43;;;11.60;99.90;;;;;;4989921;28;20572;-72
2022/04/24 10:27:40;;;;;;;4.63;3.37;;;11.60;99.90;;;;;;4990020;28;21110;-71
2022/04/24 10:30:13;;;;;;;3.63;3.33;;;11.80;99.90;;;;;;4991545;28;20532;-74
2022/04/24 10:32:46;;;;;;;4.83;3.90;;;11.90;99.90;;;;;;4995519;28;20464;-71
2022/04/24 10:35:17;;;;;;;4.20;3.70;;;11.90;99.90;;;;;;4990438;28;20531;-71
2022/04/24 10:37:48;;;;;;;7.40;3.53;;;12.00;99.90;;;;;;4991425;28;20492;-72
2022/04/24 10:40:18;;;;;;;4.03;3.73;;;12.10;99.90;;;;;;4995559;28;20502;-76
2022/04/24 10:42:50;;;;;;;7.50;3.97;;;12.20;99.90;;;;;;4990320;28;20458;-73
2022/04/24 10:45:20;;;;;;;5.43;3.17;;;12.30;99.90;;;;;;4988346;28;20483;-74
2022/04/24 10:47:58;;;;;;;3.63;3.20;;;12.40;99.90;;;;;;4985271;28;21842;-74
2022/04/24 10:50:26;;;;;;;6.17;3.00;;;12.40;99.90;;;;;;4987176;28;20451;-73
2022/04/24 10:52:56;;;;;;;4.80;2.93;;;12.40;99.90;;;;;;4983590;28;21032;-75
2022/04/24 10:55:26;;;;;;;6.50;4.20;;;12.40;99.90;;;;;;4981951;28;20542;-77
2022/04/24 10:57:59;;;;;;;4.37;3.87;;;12.40;99.90;;;;;;4982287;28;20826;-75
2022/04/24 11:00:34;;;;;;;4.50;3.27;;;12.40;99.90;;;;;;4990255;28;21097;-76
2022/04/24 11:03:11;;;;;;;6.67;3.60;;;12.20;99.90;;;;;;4990065;28;21263;-75
2022/04/24 11:05:41;;;;;;;6.30;3.53;;;12.10;99.90;;;;;;4992724;28;20948;-75
2022/04/24 11:08:14;;;;;;;5.50;3.53;;;12.30;99.90;;;;;;4989346;27;20692;-75
2022/04/24 11:10:44;;;;;;;4.93;3.70;;;12.50;99.90;;;;;;4993624;28;20533;-75
2022/04/24 11:13:17;;;;;;;4.03;3.70;;;12.70;99.90;;;;;;4994603;28;20817;-77
2022/04/24 11:15:49;;;;;;;4.80;4.20;;;12.80;99.90;;;;;;4990308;28;20805;-73
2022/04/24 11:18:23;;;;;;;8.37;4.00;;;12.90;99.90;;;;;;4996488;28;20465;-75
2022/04/24 11:21:03;;;;;;;4.50;3.00;;;12.90;99.90;;;;;;5005124;28;20493;-74
2022/04/24 11:23:34;;;;;;;4.27;3.47;;;12.90;99.90;;;;;;4993466;28;20496;-73
2022/04/24 11:26:08;;;;;;;5.50;4.43;;;12.90;99.90;;;;;;4988602;28;20759;-73
2022/04/24 11:28:37;;;;;;;7.17;3.90;;;12.80;99.90;;;;;;4987623;28;20601;-76
2022/04/24 11:31:10;;;;;;;6.67;4.23;;;12.90;99.90;;;;;;5005433;28;20596;-75
2022/04/24 11:33:54;;;;;;;4.50;4.10;;;13.20;99.90;;;;;;5002001;28;20442;-76
2022/04/24 11:36:24;;;;;;;5.20;4.20;;;13.40;99.90;;;;;;5000281;27;20454;-76
2022/04/24 11:38:53;;;;;;;5.27;4.00;;;13.50;99.90;;;;;;5004395;28;20823;-75
2022/04/24 11:41:21;;;;;;;4.60;4.20;;;13.70;99.90;;;;;;5001732;28;20484;-76
2022/04/24 11:43:49;;;;;;;6.70;4.73;;;13.80;99.90;;;;;;5002520;28;20742;-75
2022/04/24 11:51:53;;;;;;;5.67;4.27;;;13.70;99.90;;;;;;4999008;27;20486;-74
2022/04/24 11:54:22;;;;;;;5.33;3.57;;;13.60;99.90;;;;;;4998750;28;20498;-74
2022/04/24 11:56:51;;;;;;;6.83;4.40;;;13.60;99.90;;;;;;4999265;28;20798;-74
2022/04/24 11:59:20;;;;;;;7.67;5.03;;;13.50;99.90;;;;;;5001199;28;20438;-73
2022/04/24 12:01:56;;;;;;;4.93;4.20;;;13.50;99.90;;;;;;5002759;28;20472;-74
2022/04/24 12:04:31;;;;;;;3.87;3.20;;;13.50;99.90;;;;;;5022567;28;20567;-76
2022/04/24 12:07:05;;;;;;;5.43;4.27;;;13.60;99.90;;;;;;5006077;28;20485;-73
2022/04/24 12:09:33;;;;;;;4.40;4.00;;;13.80;99.90;;;;;;5001130;28;20446;-74
2022/04/24 12:12:09;;;;;;;5.60;5.00;;;13.80;99.90;;;;;;4999831;27;20505;-75
2022/04/24 12:14:38;;;;;;;8.13;4.07;;;14.00;99.90;;;;;;5000171;28;20718;-73
2022/04/24 12:17:08;;;;;;;4.90;4.50;;;14.10;99.90;;;;;;4999184;28;21043;-74
2022/04/24 12:19:40;;;;;;;7.73;4.80;;;14.10;99.90;;;;;;4998960;28;20652;-76
2022/04/24 12:22:09;;;;;;;6.83;5.37;;;14.00;99.90;;;;;;4999818;28;20495;-74
2022/04/24 12:24:42;;;;;;;8.53;4.80;;;13.60;99.90;;;;;;4999073;28;20456;-75
2022/04/24 12:27:14;;;;;;;5.13;4.63;;;13.40;99.90;;;;;;4998789;28;20474;-74
2022/04/24 12:29:43;;;;;;;6.00;5.00;;;13.20;99.90;;;;;;4998242;27;20939;-76
2022/04/24 12:32:14;;;;;;;9.57;5.83;;;13.10;99.90;;;;;;4998417;28;20553;-77
2022/04/24 12:34:45;;;;;;;5.33;4.23;;;13.00;99.90;;;;;;5000835;28;20880;-73
2022/04/24 12:37:14;;;;;;;6.70;5.10;;;13.20;99.90;;;;;;5001516;28;20840;-74
2022/04/24 12:39:52;;;;;;;7.50;4.50;;;13.20;99.90;;;;;;5003476;28;20464;-76
2022/04/24 12:42:20;;;;;;;8.17;6.30;;;13.20;99.90;;;;;;4997924;28;21025;-76
2022/04/24 12:44:48;;;;;;;5.27;4.73;;;13.10;99.90;;;;;;4997864;28;20969;-75
2022/04/24 12:47:16;;;;;;;6.13;4.50;;;13.00;99.90;;;;;;4997564;28;20478;-75
2022/04/24 12:49:46;;;;;;;6.80;5.10;;;12.90;99.90;;;;;;4998264;28;20966;-75
2022/04/24 12:52:13;;;;;;;7.70;5.10;;;12.70;99.90;;;;;;4998197;28;20468;-75
2022/04/24 12:54:43;;;;;;;7.33;5.47;;;12.60;99.90;;;;;;4998673;28;20456;-75
2022/04/24 12:57:11;;;;;;;8.30;5.20;;;12.60;99.90;;;;;;4999176;27;20541;-74
2022/04/24 12:59:39;;;;;;;9.07;5.27;;;12.50;99.90;;;;;;4999035;28;20447;-73
2022/04/24 13:02:07;;;;;;;6.63;4.33;;;12.50;99.90;;;;;;4998981;28;20474;-74
2022/04/24 13:04:36;;;;;;;10.60;5.33;;;12.50;99.90;;;;;;5001064;28;20481;-74
2022/04/24 13:07:05;;;;;;;7.37;5.97;;;12.60;99.90;;;;;;4998798;28;20568;-74
2022/04/24 13:09:33;;;;;;;6.73;5.50;;;12.60;99.90;;;;;;4998234;28;20450;-75
2022/04/24 13:12:01;;;;;;;5.13;4.60;;;12.50;99.90;;;;;;4998288;28;20930;-75